sensor_id;sensor_type;location;lat;lon;timestamp;P1;durP1;ratioP1;P2;durP2;ratioP2
40286;SDS011;25998;46.604;13.610;2024-03-29T00:01:05;9.77;;;8.73;;
40286;SDS011;25998;46.604;13.610;2024-03-29T00:04:16;9.65;;;8.10;;
40286;SDS011;25998;46.604;13.610;2024-03-29T00:07:27;8.77;;;7.88;;
40286;SDS011;25998;46.604;13.610;2024-03-29T00:10:38;8.68;;;7.78;;
40286;SDS011;25998;46.604;13.610;2024-03-29T00:13:49;9.50;;;8.10;;
40286;SDS011;25998;46.604;13.610;2024-03-29T00:17:00;7.00;;;6.30;;
40286;SDS011;25998;46.604;13.610;2024-03-29T00:20:14;7.22;;;6.53;;
40286;SDS011;25998;46.604;13.610;2024-03-29T00:23:25;9.77;;;8.20;;
40286;SDS011;25998;46.604;13.610;2024-03-29T00:26:36;8.73;;;7.82;;
40286;SDS011;25998;46.604;13.610;2024-03-29T00:29:47;9.30;;;8.30;;
40286;SDS011;25998;46.604;13.610;2024-03-29T00:33:02;8.75;;;7.75;;
40286;SDS011;25998;46.604;13.610;2024-03-29T00:36:14;9.35;;;8.18;;
40286;SDS011;25998;46.604;13.610;2024-03-29T00:39:25;8.07;;;7.28;;
40286;SDS011;25998;46.604;13.610;2024-03-29T00:42:39;7.50;;;6.75;;
40286;SDS011;25998;46.604;13.610;2024-03-29T00:45:50;8.40;;;6.15;;
40286;SDS011;25998;46.604;13.610;2024-03-29T00:49:01;4.70;;;4.22;;
40286;SDS011;25998;46.604;13.610;2024-03-29T00:52:12;6.55;;;5.13;;
40286;SDS011;25998;46.604;13.610;2024-03-29T00:55:23;6.60;;;5.50;;
40286;SDS011;25998;46.604;13.610;2024-03-29T00:58:36;5.82;;;5.10;;
40286;SDS011;25998;46.604;13.610;2024-03-29T01:01:47;5.70;;;5.00;;
40286;SDS011;25998;46.604;13.610;2024-03-29T01:04:58;6.43;;;4.95;;
40286;SDS011;25998;46.604;13.610;2024-03-29T01:08:09;5.10;;;4.60;;
40286;SDS011;25998;46.604;13.610;2024-03-29T01:11:20;5.35;;;4.47;;
40286;SDS011;25998;46.604;13.610;2024-03-29T01:14:31;4.88;;;3.53;;
40286;SDS011;25998;46.604;13.610;2024-03-29T01:17:41;4.45;;;3.25;;
40286;SDS011;25998;46.604;13.610;2024-03-29T01:20:52;5.13;;;4.63;;
40286;SDS011;25998;46.604;13.610;2024-03-29T01:24:03;5.03;;;4.53;;
40286;SDS011;25998;46.604;13.610;2024-03-29T01:27:14;6.45;;;5.75;;
40286;SDS011;25998;46.604;13.610;2024-03-29T01:30:25;5.85;;;5.22;;
40286;SDS011;25998;46.604;13.610;2024-03-29T01:33:37;4.60;;;4.15;;
40286;SDS011;25998;46.604;13.610;2024-03-29T01:36:50;5.65;;;4.88;;
40286;SDS011;25998;46.604;13.610;2024-03-29T01:40:00;6.00;;;4.90;;
40286;SDS011;25998;46.604;13.610;2024-03-29T01:43:11;5.15;;;4.60;;
40286;SDS011;25998;46.604;13.610;2024-03-29T01:46:23;7.25;;;5.10;;
40286;SDS011;25998;46.604;13.610;2024-03-29T01:49:34;7.00;;;4.93;;
40286;SDS011;25998;46.604;13.610;2024-03-29T01:52:45;5.25;;;4.75;;
40286;SDS011;25998;46.604;13.610;2024-03-29T01:55:57;5.70;;;4.95;;
40286;SDS011;25998;46.604;13.610;2024-03-29T01:59:12;5.22;;;4.72;;
40286;SDS011;25998;46.604;13.610;2024-03-29T02:02:25;5.18;;;4.43;;
40286;SDS011;25998;46.604;13.610;2024-03-29T02:05:37;6.25;;;4.30;;
40286;SDS011;25998;46.604;13.610;2024-03-29T02:08:52;4.50;;;3.70;;
40286;SDS011;25998;46.604;13.610;2024-03-29T02:12:03;6.00;;;4.20;;
40286;SDS011;25998;46.604;13.610;2024-03-29T02:15:15;5.45;;;4.00;;
40286;SDS011;25998;46.604;13.610;2024-03-29T02:18:26;5.10;;;4.20;;
40286;SDS011;25998;46.604;13.610;2024-03-29T02:21:39;5.07;;;3.97;;
40286;SDS011;25998;46.604;13.610;2024-03-29T02:24:55;5.88;;;4.55;;
40286;SDS011;25998;46.604;13.610;2024-03-29T02:28:06;6.00;;;4.45;;
40286;SDS011;25998;46.604;13.610;2024-03-29T02:31:17;6.22;;;4.00;;
40286;SDS011;25998;46.604;13.610;2024-03-29T02:34:28;4.90;;;3.88;;
40286;SDS011;25998;46.604;13.610;2024-03-29T02:37:39;7.40;;;4.32;;
40286;SDS011;25998;46.604;13.610;2024-03-29T02:40:49;4.75;;;3.92;;
40286;SDS011;25998;46.604;13.610;2024-03-29T02:44:00;6.18;;;3.90;;
40286;SDS011;25998;46.604;13.610;2024-03-29T02:47:12;6.10;;;4.07;;
40286;SDS011;25998;46.604;13.610;2024-03-29T02:50:23;5.22;;;3.85;;
40286;SDS011;25998;46.604;13.610;2024-03-29T02:53:33;7.18;;;3.65;;
40286;SDS011;25998;46.604;13.610;2024-03-29T02:56:44;4.10;;;3.22;;
40286;SDS011;25998;46.604;13.610;2024-03-29T02:59:55;4.35;;;2.80;;
40286;SDS011;25998;46.604;13.610;2024-03-29T03:03:06;4.03;;;2.65;;
40286;SDS011;25998;46.604;13.610;2024-03-29T03:06:17;2.90;;;2.38;;
40286;SDS011;25998;46.604;13.610;2024-03-29T03:09:28;3.28;;;2.55;;
40286;SDS011;25998;46.604;13.610;2024-03-29T03:12:57;3.65;;;2.50;;
40286;SDS011;25998;46.604;13.610;2024-03-29T03:16:08;4.70;;;2.60;;
40286;SDS011;25998;46.604;13.610;2024-03-29T03:19:19;3.55;;;2.30;;
40286;SDS011;25998;46.604;13.610;2024-03-29T03:22:30;2.95;;;2.20;;
40286;SDS011;25998;46.604;13.610;2024-03-29T03:25:41;4.00;;;2.75;;
40286;SDS011;25998;46.604;13.610;2024-03-29T03:28:52;4.90;;;3.58;;
40286;SDS011;25998;46.604;13.610;2024-03-29T03:32:03;3.45;;;2.75;;
40286;SDS011;25998;46.604;13.610;2024-03-29T03:35:14;3.95;;;3.17;;
40286;SDS011;25998;46.604;13.610;2024-03-29T03:38:25;4.63;;;3.28;;
40286;SDS011;25998;46.604;13.610;2024-03-29T03:41:36;4.43;;;3.58;;
40286;SDS011;25998;46.604;13.610;2024-03-29T03:44:47;5.03;;;3.83;;
40286;SDS011;25998;46.604;13.610;2024-03-29T03:47:58;5.15;;;3.67;;
40286;SDS011;25998;46.604;13.610;2024-03-29T03:51:08;4.47;;;3.08;;
40286;SDS011;25998;46.604;13.610;2024-03-29T03:54:19;4.57;;;3.13;;
40286;SDS011;25998;46.604;13.610;2024-03-29T03:57:30;4.00;;;3.00;;
40286;SDS011;25998;46.604;13.610;2024-03-29T04:00:41;3.78;;;2.95;;
40286;SDS011;25998;46.604;13.610;2024-03-29T04:03:52;3.33;;;2.60;;
40286;SDS011;25998;46.604;13.610;2024-03-29T04:07:03;3.90;;;2.80;;
40286;SDS011;25998;46.604;13.610;2024-03-29T04:10:14;3.80;;;2.95;;
40286;SDS011;25998;46.604;13.610;2024-03-29T04:13:26;4.10;;;3.45;;
40286;SDS011;25998;46.604;13.610;2024-03-29T04:16:37;4.65;;;3.28;;
40286;SDS011;25998;46.604;13.610;2024-03-29T04:19:47;3.85;;;3.03;;
40286;SDS011;25998;46.604;13.610;2024-03-29T04:22:58;3.80;;;2.80;;
40286;SDS011;25998;46.604;13.610;2024-03-29T04:26:09;3.92;;;3.00;;
40286;SDS011;25998;46.604;13.610;2024-03-29T04:29:20;6.70;;;3.97;;
40286;SDS011;25998;46.604;13.610;2024-03-29T04:32:31;6.13;;;4.35;;
40286;SDS011;25998;46.604;13.610;2024-03-29T04:35:51;8.75;;;4.45;;
40286;SDS011;25998;46.604;13.610;2024-03-29T04:39:12;4.57;;;3.90;;
40286;SDS011;25998;46.604;13.610;2024-03-29T04:42:23;5.65;;;3.75;;
40286;SDS011;25998;46.604;13.610;2024-03-29T04:45:35;4.10;;;3.30;;
40286;SDS011;25998;46.604;13.610;2024-03-29T04:48:50;5.07;;;4.00;;
40286;SDS011;25998;46.604;13.610;2024-03-29T04:52:01;5.82;;;3.60;;
40286;SDS011;25998;46.604;13.610;2024-03-29T04:55:12;4.97;;;4.10;;
40286;SDS011;25998;46.604;13.610;2024-03-29T04:58:23;5.90;;;4.32;;
40286;SDS011;25998;46.604;13.610;2024-03-29T05:01:35;4.97;;;3.85;;
40286;SDS011;25998;46.604;13.610;2024-03-29T05:04:46;5.60;;;4.10;;
40286;SDS011;25998;46.604;13.610;2024-03-29T05:07:57;6.25;;;4.25;;
40286;SDS011;25998;46.604;13.610;2024-03-29T05:11:08;5.28;;;3.75;;
40286;SDS011;25998;46.604;13.610;2024-03-29T05:14:21;5.75;;;3.53;;
40286;SDS011;25998;46.604;13.610;2024-03-29T05:17:32;5.57;;;4.00;;
40286;SDS011;25998;46.604;13.610;2024-03-29T05:20:43;6.25;;;3.40;;
40286;SDS011;25998;46.604;13.610;2024-03-29T05:23:59;7.30;;;4.03;;
40286;SDS011;25998;46.604;13.610;2024-03-29T05:27:11;9.02;;;4.82;;
40286;SDS011;25998;46.604;13.610;2024-03-29T05:30:22;8.80;;;4.65;;
40286;SDS011;25998;46.604;13.610;2024-03-29T05:33:34;8.65;;;3.97;;
40286;SDS011;25998;46.604;13.610;2024-03-29T05:36:48;10.35;;;3.35;;
40286;SDS011;25998;46.604;13.610;2024-03-29T05:40:00;7.07;;;4.05;;
40286;SDS011;25998;46.604;13.610;2024-03-29T05:43:11;7.20;;;3.40;;
40286;SDS011;25998;46.604;13.610;2024-03-29T05:46:22;10.88;;;3.78;;
40286;SDS011;25998;46.604;13.610;2024-03-29T05:49:32;7.40;;;3.17;;
40286;SDS011;25998;46.604;13.610;2024-03-29T05:52:44;7.78;;;4.03;;
40286;SDS011;25998;46.604;13.610;2024-03-29T05:55:55;7.50;;;3.95;;
40286;SDS011;25998;46.604;13.610;2024-03-29T05:59:05;7.10;;;3.30;;
40286;SDS011;25998;46.604;13.610;2024-03-29T06:02:16;6.75;;;3.08;;
40286;SDS011;25998;46.604;13.610;2024-03-29T06:05:27;8.82;;;3.53;;
40286;SDS011;25998;46.604;13.610;2024-03-29T06:08:38;7.75;;;3.40;;
40286;SDS011;25998;46.604;13.610;2024-03-29T06:11:49;5.82;;;3.28;;
40286;SDS011;25998;46.604;13.610;2024-03-29T06:15:00;4.35;;;2.90;;
40286;SDS011;25998;46.604;13.610;2024-03-29T06:18:30;5.22;;;3.00;;
40286;SDS011;25998;46.604;13.610;2024-03-29T06:21:42;9.32;;;3.40;;
40286;SDS011;25998;46.604;13.610;2024-03-29T06:24:53;5.15;;;2.95;;
40286;SDS011;25998;46.604;13.610;2024-03-29T06:28:04;8.63;;;3.50;;
40286;SDS011;25998;46.604;13.610;2024-03-29T06:31:15;5.88;;;3.22;;
40286;SDS011;25998;46.604;13.610;2024-03-29T06:34:26;6.63;;;3.10;;
40286;SDS011;25998;46.604;13.610;2024-03-29T06:37:42;6.13;;;3.00;;
40286;SDS011;25998;46.604;13.610;2024-03-29T06:40:53;5.18;;;2.75;;
40286;SDS011;25998;46.604;13.610;2024-03-29T06:44:04;4.55;;;2.85;;
40286;SDS011;25998;46.604;13.610;2024-03-29T06:47:15;7.60;;;3.00;;
40286;SDS011;25998;46.604;13.610;2024-03-29T06:50:26;4.80;;;2.53;;
40286;SDS011;25998;46.604;13.610;2024-03-29T06:53:36;3.78;;;2.50;;
40286;SDS011;25998;46.604;13.610;2024-03-29T06:56:48;4.50;;;2.80;;
40286;SDS011;25998;46.604;13.610;2024-03-29T06:59:59;7.68;;;2.70;;
40286;SDS011;25998;46.604;13.610;2024-03-29T07:03:10;5.97;;;2.40;;
40286;SDS011;25998;46.604;13.610;2024-03-29T07:06:21;6.50;;;2.67;;
40286;SDS011;25998;46.604;13.610;2024-03-29T07:09:32;4.97;;;3.03;;
40286;SDS011;25998;46.604;13.610;2024-03-29T07:12:43;9.07;;;3.10;;
40286;SDS011;25998;46.604;13.610;2024-03-29T07:15:54;6.22;;;2.75;;
40286;SDS011;25998;46.604;13.610;2024-03-29T07:19:04;9.45;;;3.08;;
40286;SDS011;25998;46.604;13.610;2024-03-29T07:22:15;5.93;;;2.80;;
40286;SDS011;25998;46.604;13.610;2024-03-29T07:25:26;5.40;;;2.65;;
40286;SDS011;25998;46.604;13.610;2024-03-29T07:28:38;5.38;;;3.40;;
40286;SDS011;25998;46.604;13.610;2024-03-29T07:31:49;8.20;;;2.47;;
40286;SDS011;25998;46.604;13.610;2024-03-29T07:35:00;6.80;;;2.67;;
40286;SDS011;25998;46.604;13.610;2024-03-29T07:38:12;6.13;;;2.95;;
40286;SDS011;25998;46.604;13.610;2024-03-29T07:41:27;7.65;;;2.67;;
40286;SDS011;25998;46.604;13.610;2024-03-29T07:44:38;5.18;;;2.38;;
40286;SDS011;25998;46.604;13.610;2024-03-29T07:47:49;4.35;;;3.15;;
40286;SDS011;25998;46.604;13.610;2024-03-29T07:51:04;5.47;;;2.97;;
40286;SDS011;25998;46.604;13.610;2024-03-29T07:54:15;4.15;;;2.60;;
40286;SDS011;25998;46.604;13.610;2024-03-29T07:57:26;5.82;;;3.35;;
40286;SDS011;25998;46.604;13.610;2024-03-29T08:00:39;4.28;;;2.60;;
40286;SDS011;25998;46.604;13.610;2024-03-29T08:03:53;5.15;;;2.35;;
40286;SDS011;25998;46.604;13.610;2024-03-29T08:07:03;3.80;;;2.00;;
40286;SDS011;25998;46.604;13.610;2024-03-29T08:10:14;6.80;;;2.10;;
40286;SDS011;25998;46.604;13.610;2024-03-29T08:13:26;4.45;;;2.20;;
40286;SDS011;25998;46.604;13.610;2024-03-29T08:16:37;3.08;;;1.80;;
40286;SDS011;25998;46.604;13.610;2024-03-29T08:19:48;6.00;;;2.38;;
40286;SDS011;25998;46.604;13.610;2024-03-29T08:22:59;3.97;;;2.35;;
40286;SDS011;25998;46.604;13.610;2024-03-29T08:26:10;4.85;;;2.38;;
40286;SDS011;25998;46.604;13.610;2024-03-29T08:29:21;4.28;;;2.15;;
40286;SDS011;25998;46.604;13.610;2024-03-29T08:32:32;4.43;;;2.00;;
40286;SDS011;25998;46.604;13.610;2024-03-29T08:35:43;4.05;;;2.00;;
40286;SDS011;25998;46.604;13.610;2024-03-29T08:38:54;7.15;;;2.22;;
40286;SDS011;25998;46.604;13.610;2024-03-29T08:42:05;4.50;;;2.03;;
40286;SDS011;25998;46.604;13.610;2024-03-29T08:45:16;3.60;;;1.90;;
40286;SDS011;25998;46.604;13.610;2024-03-29T08:48:27;3.05;;;1.70;;
40286;SDS011;25998;46.604;13.610;2024-03-29T08:51:38;3.22;;;2.03;;
40286;SDS011;25998;46.604;13.610;2024-03-29T08:54:49;7.18;;;2.20;;
40286;SDS011;25998;46.604;13.610;2024-03-29T08:58:00;5.45;;;2.25;;
40286;SDS011;25998;46.604;13.610;2024-03-29T09:01:12;6.03;;;1.65;;
40286;SDS011;25998;46.604;13.610;2024-03-29T09:04:25;4.90;;;1.80;;
40286;SDS011;25998;46.604;13.610;2024-03-29T09:07:36;3.15;;;1.60;;
40286;SDS011;25998;46.604;13.610;2024-03-29T09:10:48;2.65;;;1.70;;
40286;SDS011;25998;46.604;13.610;2024-03-29T09:13:59;5.50;;;2.00;;
40286;SDS011;25998;46.604;13.610;2024-03-29T09:17:11;4.55;;;1.90;;
40286;SDS011;25998;46.604;13.610;2024-03-29T09:20:22;4.95;;;1.92;;
40286;SDS011;25998;46.604;13.610;2024-03-29T09:23:33;6.88;;;1.58;;
40286;SDS011;25998;46.604;13.610;2024-03-29T09:26:44;4.55;;;1.83;;
40286;SDS011;25998;46.604;13.610;2024-03-29T09:29:55;3.22;;;1.92;;
40286;SDS011;25998;46.604;13.610;2024-03-29T09:33:06;2.70;;;1.50;;
40286;SDS011;25998;46.604;13.610;2024-03-29T09:36:20;4.18;;;1.70;;
40286;SDS011;25998;46.604;13.610;2024-03-29T09:39:33;4.20;;;1.80;;
40286;SDS011;25998;46.604;13.610;2024-03-29T09:42:44;3.60;;;1.70;;
40286;SDS011;25998;46.604;13.610;2024-03-29T09:45:56;4.72;;;1.98;;
40286;SDS011;25998;46.604;13.610;2024-03-29T09:49:07;3.35;;;1.45;;
40286;SDS011;25998;46.604;13.610;2024-03-29T09:52:18;4.25;;;1.90;;
40286;SDS011;25998;46.604;13.610;2024-03-29T09:55:33;3.58;;;1.60;;
40286;SDS011;25998;46.604;13.610;2024-03-29T09:58:47;4.25;;;1.70;;
40286;SDS011;25998;46.604;13.610;2024-03-29T10:01:58;2.92;;;1.80;;
40286;SDS011;25998;46.604;13.610;2024-03-29T10:05:11;2.83;;;1.63;;
40286;SDS011;25998;46.604;13.610;2024-03-29T10:08:27;5.20;;;1.80;;
40286;SDS011;25998;46.604;13.610;2024-03-29T10:11:40;5.38;;;1.70;;
40286;SDS011;25998;46.604;13.610;2024-03-29T10:14:51;3.85;;;1.40;;
40286;SDS011;25998;46.604;13.610;2024-03-29T10:18:27;2.10;;;1.20;;
40286;SDS011;25998;46.604;13.610;2024-03-29T10:21:40;2.97;;;1.65;;
40286;SDS011;25998;46.604;13.610;2024-03-29T10:24:51;3.63;;;1.42;;
40286;SDS011;25998;46.604;13.610;2024-03-29T10:28:02;2.55;;;1.30;;
40286;SDS011;25998;46.604;13.610;2024-03-29T10:31:13;2.95;;;1.30;;
40286;SDS011;25998;46.604;13.610;2024-03-29T10:34:24;6.03;;;1.75;;
40286;SDS011;25998;46.604;13.610;2024-03-29T10:37:36;2.80;;;1.10;;
40286;SDS011;25998;46.604;13.610;2024-03-29T10:40:50;2.70;;;1.40;;
40286;SDS011;25998;46.604;13.610;2024-03-29T10:44:02;3.78;;;1.30;;
40286;SDS011;25998;46.604;13.610;2024-03-29T10:47:18;3.70;;;1.45;;
40286;SDS011;25998;46.604;13.610;2024-03-29T10:50:30;3.38;;;1.10;;
40286;SDS011;25998;46.604;13.610;2024-03-29T10:53:42;2.72;;;1.25;;
40286;SDS011;25998;46.604;13.610;2024-03-29T10:56:59;2.35;;;1.20;;
40286;SDS011;25998;46.604;13.610;2024-03-29T11:00:17;1.90;;;0.95;;
40286;SDS011;25998;46.604;13.610;2024-03-29T11:06:50;2.08;;;0.90;;
40286;SDS011;25998;46.604;13.610;2024-03-29T11:10:04;3.10;;;1.30;;
40286;SDS011;25998;46.604;13.610;2024-03-29T11:13:26;2.67;;;1.13;;
40286;SDS011;25998;46.604;13.610;2024-03-29T11:16:46;1.95;;;1.00;;
40286;SDS011;25998;46.604;13.610;2024-03-29T11:19:59;2.42;;;0.90;;
40286;SDS011;25998;46.604;13.610;2024-03-29T11:23:13;2.70;;;1.10;;
40286;SDS011;25998;46.604;13.610;2024-03-29T11:26:25;1.70;;;1.00;;
40286;SDS011;25998;46.604;13.610;2024-03-29T11:29:43;2.28;;;1.20;;
40286;SDS011;25998;46.604;13.610;2024-03-29T11:32:56;2.80;;;1.08;;
40286;SDS011;25998;46.604;13.610;2024-03-29T11:36:11;2.08;;;1.02;;
40286;SDS011;25998;46.604;13.610;2024-03-29T11:39:30;1.83;;;1.00;;
40286;SDS011;25998;46.604;13.610;2024-03-29T11:42:51;5.55;;;1.40;;
40286;SDS011;25998;46.604;13.610;2024-03-29T11:46:04;2.35;;;0.90;;
40286;SDS011;25998;46.604;13.610;2024-03-29T11:49:16;4.25;;;1.38;;
40286;SDS011;25998;46.604;13.610;2024-03-29T11:52:30;1.70;;;1.00;;
40286;SDS011;25998;46.604;13.610;2024-03-29T11:55:41;2.83;;;1.00;;
40286;SDS011;25998;46.604;13.610;2024-03-29T11:58:52;1.92;;;1.02;;
40286;SDS011;25998;46.604;13.610;2024-03-29T12:02:04;1.13;;;0.82;;
40286;SDS011;25998;46.604;13.610;2024-03-29T12:05:20;1.55;;;0.90;;
40286;SDS011;25998;46.604;13.610;2024-03-29T12:08:32;0.95;;;0.70;;
40286;SDS011;25998;46.604;13.610;2024-03-29T12:11:44;1.20;;;0.85;;
40286;SDS011;25998;46.604;13.610;2024-03-29T12:15:01;1.02;;;0.80;;
40286;SDS011;25998;46.604;13.610;2024-03-29T12:18:27;1.52;;;0.98;;
40286;SDS011;25998;46.604;13.610;2024-03-29T12:21:40;1.95;;;0.90;;
40286;SDS011;25998;46.604;13.610;2024-03-29T12:24:51;1.20;;;0.80;;
40286;SDS011;25998;46.604;13.610;2024-03-29T12:28:02;1.38;;;0.90;;
40286;SDS011;25998;46.604;13.610;2024-03-29T12:31:16;2.10;;;0.77;;
40286;SDS011;25998;46.604;13.610;2024-03-29T12:34:27;1.10;;;0.80;;
40286;SDS011;25998;46.604;13.610;2024-03-29T12:37:50;1.67;;;0.90;;
40286;SDS011;25998;46.604;13.610;2024-03-29T12:41:03;3.25;;;1.20;;
40286;SDS011;25998;46.604;13.610;2024-03-29T12:44:17;2.90;;;1.27;;
40286;SDS011;25998;46.604;13.610;2024-03-29T12:47:28;2.50;;;1.00;;
40286;SDS011;25998;46.604;13.610;2024-03-29T12:50:40;2.03;;;1.20;;
40286;SDS011;25998;46.604;13.610;2024-03-29T12:53:52;2.13;;;1.27;;
40286;SDS011;25998;46.604;13.610;2024-03-29T12:57:03;3.25;;;1.27;;
40286;SDS011;25998;46.604;13.610;2024-03-29T13:00:17;3.35;;;1.40;;
40286;SDS011;25998;46.604;13.610;2024-03-29T13:03:29;2.13;;;1.10;;
40286;SDS011;25998;46.604;13.610;2024-03-29T13:06:40;2.10;;;1.17;;
40286;SDS011;25998;46.604;13.610;2024-03-29T13:09:51;3.72;;;1.42;;
40286;SDS011;25998;46.604;13.610;2024-03-29T13:13:06;3.00;;;1.05;;
40286;SDS011;25998;46.604;13.610;2024-03-29T13:16:17;1.70;;;1.10;;
40286;SDS011;25998;46.604;13.610;2024-03-29T13:19:28;2.92;;;0.90;;
40286;SDS011;25998;46.604;13.610;2024-03-29T13:22:39;2.05;;;1.00;;
40286;SDS011;25998;46.604;13.610;2024-03-29T13:25:52;1.60;;;0.90;;
40286;SDS011;25998;46.604;13.610;2024-03-29T13:29:05;2.63;;;1.05;;
40286;SDS011;25998;46.604;13.610;2024-03-29T13:32:16;4.13;;;1.52;;
40286;SDS011;25998;46.604;13.610;2024-03-29T13:35:27;3.55;;;1.30;;
40286;SDS011;25998;46.604;13.610;2024-03-29T13:38:38;2.90;;;1.30;;
40286;SDS011;25998;46.604;13.610;2024-03-29T13:41:49;3.55;;;1.20;;
40286;SDS011;25998;46.604;13.610;2024-03-29T13:45:03;8.25;;;1.98;;
40286;SDS011;25998;46.604;13.610;2024-03-29T13:48:15;4.80;;;1.60;;
40286;SDS011;25998;46.604;13.610;2024-03-29T13:51:27;3.22;;;1.20;;
40286;SDS011;25998;46.604;13.610;2024-03-29T13:54:41;4.85;;;1.52;;
40286;SDS011;25998;46.604;13.610;2024-03-29T13:57:59;4.50;;;1.98;;
40286;SDS011;25998;46.604;13.610;2024-03-29T14:01:10;3.83;;;1.92;;
40286;SDS011;25998;46.604;13.610;2024-03-29T14:04:26;5.63;;;2.08;;
40286;SDS011;25998;46.604;13.610;2024-03-29T14:07:41;7.03;;;1.92;;
40286;SDS011;25998;46.604;13.610;2024-03-29T14:10:52;4.75;;;1.60;;
40286;SDS011;25998;46.604;13.610;2024-03-29T14:14:03;5.60;;;1.67;;
40286;SDS011;25998;46.604;13.610;2024-03-29T14:17:17;5.07;;;1.73;;
40286;SDS011;25998;46.604;13.610;2024-03-29T14:20:31;4.95;;;1.88;;
40286;SDS011;25998;46.604;13.610;2024-03-29T14:23:42;6.13;;;1.67;;
40286;SDS011;25998;46.604;13.610;2024-03-29T14:26:53;8.00;;;2.05;;
40286;SDS011;25998;46.604;13.610;2024-03-29T14:30:05;5.95;;;1.65;;
40286;SDS011;25998;46.604;13.610;2024-03-29T14:33:17;4.95;;;2.05;;
40286;SDS011;25998;46.604;13.610;2024-03-29T14:36:28;5.93;;;1.85;;
40286;SDS011;25998;46.604;13.610;2024-03-29T14:39:42;5.18;;;1.92;;
40286;SDS011;25998;46.604;13.610;2024-03-29T14:42:54;6.20;;;1.85;;
40286;SDS011;25998;46.604;13.610;2024-03-29T14:46:08;6.35;;;1.67;;
40286;SDS011;25998;46.604;13.610;2024-03-29T14:49:18;6.57;;;1.88;;
40286;SDS011;25998;46.604;13.610;2024-03-29T14:52:30;7.18;;;1.60;;
40286;SDS011;25998;46.604;13.610;2024-03-29T14:55:43;4.88;;;1.83;;
40286;SDS011;25998;46.604;13.610;2024-03-29T14:58:54;7.20;;;1.90;;
40286;SDS011;25998;46.604;13.610;2024-03-29T15:02:05;6.15;;;2.17;;
40286;SDS011;25998;46.604;13.610;2024-03-29T15:05:16;6.57;;;2.50;;
40286;SDS011;25998;46.604;13.610;2024-03-29T15:08:27;5.82;;;2.65;;
40286;SDS011;25998;46.604;13.610;2024-03-29T15:11:38;6.78;;;1.85;;
40286;SDS011;25998;46.604;13.610;2024-03-29T15:14:49;5.78;;;1.70;;
40286;SDS011;25998;46.604;13.610;2024-03-29T15:18:00;7.15;;;1.90;;
40286;SDS011;25998;46.604;13.610;2024-03-29T15:21:10;5.57;;;1.92;;
40286;SDS011;25998;46.604;13.610;2024-03-29T15:24:22;11.32;;;3.08;;
40286;SDS011;25998;46.604;13.610;2024-03-29T15:27:33;8.65;;;1.90;;
40286;SDS011;25998;46.604;13.610;2024-03-29T15:31:06;10.45;;;2.40;;
40286;SDS011;25998;46.604;13.610;2024-03-29T15:34:23;5.82;;;2.20;;
40286;SDS011;25998;46.604;13.610;2024-03-29T15:37:37;10.77;;;2.63;;
40286;SDS011;25998;46.604;13.610;2024-03-29T15:40:52;11.68;;;2.50;;
40286;SDS011;25998;46.604;13.610;2024-03-29T15:44:04;11.10;;;2.90;;
40286;SDS011;25998;46.604;13.610;2024-03-29T15:47:15;11.20;;;3.20;;
40286;SDS011;25998;46.604;13.610;2024-03-29T15:50:26;10.18;;;3.03;;
40286;SDS011;25998;46.604;13.610;2024-03-29T15:53:37;14.82;;;3.05;;
40286;SDS011;25998;46.604;13.610;2024-03-29T15:56:48;21.55;;;3.72;;
40286;SDS011;25998;46.604;13.610;2024-03-29T15:59:59;10.13;;;2.65;;
40286;SDS011;25998;46.604;13.610;2024-03-29T16:03:10;12.02;;;2.88;;
40286;SDS011;25998;46.604;13.610;2024-03-29T16:06:23;11.05;;;3.22;;
40286;SDS011;25998;46.604;13.610;2024-03-29T16:09:34;11.98;;;3.40;;
40286;SDS011;25998;46.604;13.610;2024-03-29T16:12:45;13.38;;;2.90;;
40286;SDS011;25998;46.604;13.610;2024-03-29T16:15:57;14.82;;;3.28;;
40286;SDS011;25998;46.604;13.610;2024-03-29T16:19:09;15.40;;;3.45;;
40286;SDS011;25998;46.604;13.610;2024-03-29T16:22:20;11.85;;;3.45;;
40286;SDS011;25998;46.604;13.610;2024-03-29T16:25:31;17.25;;;3.55;;
40286;SDS011;25998;46.604;13.610;2024-03-29T16:28:42;10.73;;;2.80;;
40286;SDS011;25998;46.604;13.610;2024-03-29T16:31:53;17.95;;;3.90;;
40286;SDS011;25998;46.604;13.610;2024-03-29T16:35:04;12.88;;;3.28;;
40286;SDS011;25998;46.604;13.610;2024-03-29T16:38:15;15.02;;;3.05;;
40286;SDS011;25998;46.604;13.610;2024-03-29T16:41:26;14.00;;;3.10;;
40286;SDS011;25998;46.604;13.610;2024-03-29T16:44:37;11.75;;;2.97;;
40286;SDS011;25998;46.604;13.610;2024-03-29T16:47:48;19.27;;;3.42;;
40286;SDS011;25998;46.604;13.610;2024-03-29T16:51:00;16.00;;;3.83;;
40286;SDS011;25998;46.604;13.610;2024-03-29T16:54:11;12.93;;;3.65;;
40286;SDS011;25998;46.604;13.610;2024-03-29T16:57:21;12.75;;;3.30;;
40286;SDS011;25998;46.604;13.610;2024-03-29T17:00:32;17.52;;;3.58;;
40286;SDS011;25998;46.604;13.610;2024-03-29T17:03:43;15.05;;;3.20;;
40286;SDS011;25998;46.604;13.610;2024-03-29T17:06:55;14.55;;;3.47;;
40286;SDS011;25998;46.604;13.610;2024-03-29T17:10:09;20.95;;;4.82;;
40286;SDS011;25998;46.604;13.610;2024-03-29T17:13:20;16.98;;;3.47;;
40286;SDS011;25998;46.604;13.610;2024-03-29T17:16:31;18.25;;;3.72;;
40286;SDS011;25998;46.604;13.610;2024-03-29T17:19:42;17.45;;;4.00;;
40286;SDS011;25998;46.604;13.610;2024-03-29T17:22:52;17.48;;;3.60;;
40286;SDS011;25998;46.604;13.610;2024-03-29T17:26:03;18.52;;;3.47;;
40286;SDS011;25998;46.604;13.610;2024-03-29T17:29:14;17.02;;;3.70;;
40286;SDS011;25998;46.604;13.610;2024-03-29T17:32:25;14.07;;;3.42;;
40286;SDS011;25998;46.604;13.610;2024-03-29T17:35:36;19.73;;;4.38;;
40286;SDS011;25998;46.604;13.610;2024-03-29T17:38:47;14.80;;;3.60;;
40286;SDS011;25998;46.604;13.610;2024-03-29T17:41:58;14.82;;;3.67;;
40286;SDS011;25998;46.604;13.610;2024-03-29T17:45:09;15.45;;;3.50;;
40286;SDS011;25998;46.604;13.610;2024-03-29T17:48:20;20.75;;;12.82;;
40286;SDS011;25998;46.604;13.610;2024-03-29T17:51:31;17.40;;;3.72;;
40286;SDS011;25998;46.604;13.610;2024-03-29T17:54:43;18.85;;;4.78;;
40286;SDS011;25998;46.604;13.610;2024-03-29T17:57:54;23.15;;;4.28;;
40286;SDS011;25998;46.604;13.610;2024-03-29T18:01:05;18.55;;;3.85;;
40286;SDS011;25998;46.604;13.610;2024-03-29T18:04:16;14.15;;;3.83;;
40286;SDS011;25998;46.604;13.610;2024-03-29T18:07:26;20.98;;;4.30;;
40286;SDS011;25998;46.604;13.610;2024-03-29T18:10:37;19.17;;;3.95;;
40286;SDS011;25998;46.604;13.610;2024-03-29T18:13:48;17.77;;;4.07;;
40286;SDS011;25998;46.604;13.610;2024-03-29T18:16:59;16.05;;;4.18;;
40286;SDS011;25998;46.604;13.610;2024-03-29T18:20:10;14.50;;;3.55;;
40286;SDS011;25998;46.604;13.610;2024-03-29T18:23:22;18.83;;;4.50;;
40286;SDS011;25998;46.604;13.610;2024-03-29T18:26:35;14.13;;;3.95;;
40286;SDS011;25998;46.604;13.610;2024-03-29T18:29:46;18.77;;;3.95;;
40286;SDS011;25998;46.604;13.610;2024-03-29T18:32:57;22.73;;;4.00;;
40286;SDS011;25998;46.604;13.610;2024-03-29T18:36:08;21.85;;;4.55;;
40286;SDS011;25998;46.604;13.610;2024-03-29T18:39:20;19.58;;;4.50;;
40286;SDS011;25998;46.604;13.610;2024-03-29T18:42:34;18.92;;;3.80;;
40286;SDS011;25998;46.604;13.610;2024-03-29T18:45:45;18.33;;;4.63;;
40286;SDS011;25998;46.604;13.610;2024-03-29T18:48:56;18.52;;;4.82;;
40286;SDS011;25998;46.604;13.610;2024-03-29T18:52:07;21.13;;;4.70;;
40286;SDS011;25998;46.604;13.610;2024-03-29T18:55:18;14.05;;;4.63;;
40286;SDS011;25998;46.604;13.610;2024-03-29T18:58:31;23.58;;;4.78;;